Terminal Aerodrome Forecast
Issued by NWS

Home | Current Version | Previous Version | Graphics & Text | Print | Product List | Glossary On
Versions: 1 2 3 4 5 6 7 8 9 10 11 12 13 14 15 16
000
FTUS43 KMPX 131250 AAA
TAFRNH
TAF AMD
KRNH 131250Z 1313/1412 08007KT P6SM OVC120
     FM131400 02008KT 1 1/2SM -FZDZSN BR OVC015
     FM131515 36012KT P6SM VCSH OVC015
     FM131700 33015G23KT P6SM VCSH OVC010
     FM132300 33009KT P6SM BKN025 OVC060
     FM140300 32004KT P6SM OVC025=

USA.gov is the U.S. government's official web portal to all federal, state and local government web resources and services.